Time;durP1;ratioP1;P1;durP2;ratioP2;P2;SDS_P1;SDS_P2;PMS_P1;PMS_P2;Temp;Humidity;BMP_temperature;BMP_pressure;BME280_temperature;BME280_humidity;BME280_pressure;Samples;Min_cycle;Max_cycle;Signal;HPM_P1;HPM_P2
2023/05/30 00:01:26;;;;;;;5.75;3.78;;;;;16.10;96630.00;;;;8364421;28;20204;-60
2023/05/30 00:05:32;;;;;;;10.90;3.80;;;;;16.00;96631.00;;;;8375005;28;20223;-62
2023/05/30 00:09:36;;;;;;;7.70;3.40;;;;;16.00;96632.00;;;;8384591;28;20225;-64
2023/05/30 00:13:43;;;;;;;9.60;4.25;;;;;15.90;96626.00;;;;8368915;28;20204;-60
2023/05/30 00:17:47;;;;;;;8.00;3.90;;;;;15.80;96636.00;;;;8357081;28;20686;-61
2023/05/30 00:21:52;;;;;;;5.85;3.15;;;;;15.70;96627.00;;;;8382370;28;20203;-60
2023/05/30 00:25:56;;;;;;;8.35;3.55;;;;;15.70;96639.00;;;;8384722;28;20210;-63
2023/05/30 00:30:01;;;;;;;6.32;3.67;;;;;15.60;96631.00;;;;8374955;28;20262;-64
2023/05/30 00:34:04;;;;;;;5.88;4.10;;;;;15.60;96631.00;;;;8372118;28;20201;-60
2023/05/30 00:38:08;;;;;;;8.27;4.00;;;;;15.60;96632.00;;;;8378605;28;20849;-63
2023/05/30 00:42:16;;;;;;;7.05;4.43;;;;;15.50;96634.00;;;;8380331;28;20196;-59
2023/05/30 00:46:29;;;;;;;7.63;3.30;;;;;15.60;96635.00;;;;8381744;28;20286;-61
2023/05/30 00:50:33;;;;;;;5.38;3.83;;;;;15.50;96633.00;;;;8378441;28;20534;-63
2023/05/30 00:54:41;;;;;;;7.18;3.58;;;;;15.50;96628.00;;;;8382937;28;20680;-61
2023/05/30 00:58:48;;;;;;;4.80;3.85;;;;;15.50;96623.00;;;;8382492;28;20208;-62
2023/05/30 01:02:59;;;;;;;5.05;3.55;;;;;15.60;96629.00;;;;8381119;28;20231;-61
2023/05/30 01:07:04;;;;;;;7.15;3.95;;;;;15.60;96629.00;;;;8378438;28;20220;-61
2023/05/30 01:11:15;;;;;;;5.30;4.28;;;;;15.60;96629.00;;;;8370797;28;20716;-61
2023/05/30 01:15:23;;;;;;;6.00;3.88;;;;;15.60;96626.00;;;;8377838;28;20198;-61
2023/05/30 01:19:55;;;;;;;9.50;4.18;;;;;15.50;96610.00;;;;8370890;28;20242;-63
2023/05/30 01:24:15;;;;;;;8.13;4.03;;;;;15.50;96620.00;;;;8383229;28;20206;-60
2023/05/30 01:28:23;;;;;;;7.72;4.18;;;;;15.50;96616.00;;;;8381684;28;20227;-60
2023/05/30 01:32:26;;;;;;;9.75;3.92;;;;;15.50;96612.00;;;;8372120;28;20250;-60
2023/05/30 01:36:30;;;;;;;8.00;3.90;;;;;15.50;96614.00;;;;8376346;28;20294;-61
2023/05/30 01:40:34;;;;;;;9.68;4.13;;;;;15.40;96608.00;;;;8381315;28;20273;-59
2023/05/30 01:44:45;;;;;;;9.73;4.00;;;;;15.40;96613.00;;;;8380623;28;20557;-60
2023/05/30 01:49:01;;;;;;;7.75;3.80;;;;;15.30;96612.00;;;;8387506;28;20581;-61
2023/05/30 01:53:20;;;;;;;8.38;3.95;;;;;15.30;96611.00;;;;8368507;28;20208;-61
2023/05/30 01:57:26;;;;;;;7.65;3.85;;;;;15.20;96600.00;;;;8372630;28;21149;-60
2023/05/30 02:01:31;;;;;;;6.05;3.65;;;;;15.10;96594.00;;;;8375990;28;20245;-62
2023/05/30 02:05:36;;;;;;;8.05;3.97;;;;;15.10;96593.00;;;;8371550;28;20221;-62
2023/05/30 02:09:43;;;;;;;7.28;3.95;;;;;15.00;96598.00;;;;8380799;28;20621;-61
2023/05/30 02:13:50;;;;;;;6.78;3.97;;;;;14.90;96601.00;;;;8374291;28;20621;-61
2023/05/30 02:17:59;;;;;;;7.60;3.92;;;;;14.80;96601.00;;;;8375882;28;20196;-62
2023/05/30 02:22:03;;;;;;;11.80;4.50;;;;;14.80;96601.00;;;;8377491;28;20675;-60
2023/05/30 02:26:07;;;;;;;10.50;4.65;;;;;14.70;96592.00;;;;8381324;28;20317;-60
2023/05/30 02:30:13;;;;;;;6.68;4.13;;;;;14.70;96589.00;;;;8374932;28;20298;-61
2023/05/30 02:34:21;;;;;;;5.22;3.42;;;;;14.60;96590.00;;;;8379627;28;20285;-60
2023/05/30 02:38:31;;;;;;;12.10;4.35;;;;;14.50;96586.00;;;;8366301;28;20200;-61
2023/05/30 02:42:43;;;;;;;6.05;3.95;;;;;14.50;96589.00;;;;8368863;28;20203;-62
2023/05/30 02:46:46;;;;;;;11.40;4.55;;;;;14.40;96591.00;;;;8368546;28;20197;-60
2023/05/30 02:50:51;;;;;;;5.75;4.30;;;;;14.40;96589.00;;;;8378301;28;20277;-61
2023/05/30 02:54:56;;;;;;;8.18;4.07;;;;;14.30;96591.00;;;;8384218;28;20668;-62
2023/05/30 02:59:02;;;;;;;8.32;4.25;;;;;14.30;96597.00;;;;8370835;28;20261;-62
2023/05/30 03:03:08;;;;;;;9.05;4.50;;;;;14.30;96599.00;;;;8377891;22;20270;-64
2023/05/30 03:07:17;;;;;;;8.05;4.13;;;;;14.20;96605.00;;;;8311345;28;20243;-62
2023/05/30 03:11:21;;;;;;;7.70;4.10;;;;;14.20;96608.00;;;;8314511;28;20203;-61
2023/05/30 03:15:27;;;;;;;6.13;3.80;;;;;14.20;96599.00;;;;8299670;28;20206;-62
2023/05/30 03:19:31;;;;;;;8.02;4.20;;;;;14.20;96606.00;;;;8295711;28;20217;-61
2023/05/30 03:23:35;;;;;;;7.60;4.30;;;;;14.20;96610.00;;;;8322962;28;20251;-61
2023/05/30 03:27:39;;;;;;;10.88;4.88;;;;;14.20;96607.00;;;;8316651;28;20283;-60
2023/05/30 03:31:45;;;;;;;6.22;3.65;;;;;14.20;96602.00;;;;8302302;28;20238;-61
2023/05/30 03:35:52;;;;;;;9.55;4.70;;;;;14.20;96598.00;;;;8318927;28;20199;-64
2023/05/30 03:39:58;;;;;;;5.15;4.00;;;;;14.30;96606.00;;;;8308511;28;20212;-63
2023/05/30 03:44:04;;;;;;;6.30;4.07;;;;;14.30;96611.00;;;;8319894;28;20262;-63
2023/05/30 03:48:09;;;;;;;11.07;5.25;;;;;14.30;96616.00;;;;8319426;28;20217;-63
2023/05/30 03:52:16;;;;;;;5.57;4.15;;;;;14.30;96618.00;;;;8317994;28;20234;-60
2023/05/30 03:56:26;;;;;;;6.65;4.45;;;;;14.40;96617.00;;;;8320015;28;20623;-61
2023/05/30 04:00:29;;;;;;;9.73;4.43;;;;;14.40;96632.00;;;;8316880;28;20250;-63
2023/05/30 04:04:38;;;;;;;10.23;4.13;;;;;14.60;96624.00;;;;8323205;28;20248;-61
2023/05/30 04:08:42;;;;;;;5.63;3.80;;;;;14.70;96623.00;;;;8323148;28;20777;-61
2023/05/30 04:12:48;;;;;;;9.48;4.30;;;;;14.80;96620.00;;;;8314903;28;20263;-60
2023/05/30 04:16:51;;;;;;;6.38;4.60;;;;;14.90;96619.00;;;;8316721;28;20300;-63
2023/05/30 04:20:55;;;;;;;9.18;3.70;;;;;14.90;96619.00;;;;8313642;28;20713;-62
2023/05/30 04:25:01;;;;;;;7.25;3.97;;;;;14.90;96624.00;;;;8297967;28;20319;-62
2023/05/30 04:29:08;;;;;;;5.72;4.18;;;;;14.90;96622.00;;;;8316296;28;20224;-62
2023/05/30 04:33:12;;;;;;;9.27;3.90;;;;;14.90;96619.00;;;;8307688;28;22529;-62
2023/05/30 04:37:18;;;;;;;16.98;4.57;;;;;14.90;96628.00;;;;8315685;28;20260;-65
2023/05/30 04:41:24;;;;;;;9.98;4.68;;;;;15.00;96636.00;;;;8311276;28;20657;-61
2023/05/30 04:45:31;;;;;;;8.73;4.40;;;;;15.00;96632.00;;;;8316651;28;20211;-64
2023/05/30 04:49:41;;;;;;;5.13;3.60;;;;;15.10;96646.00;;;;8287583;28;20226;-61
2023/05/30 04:53:50;;;;;;;8.52;4.38;;;;;15.30;96645.00;;;;8251203;28;20842;-66
2023/05/30 04:57:53;;;;;;;6.88;4.05;;;;;15.70;96646.00;;;;8249234;28;20202;-63
2023/05/30 05:02:01;;;;;;;8.57;3.95;;;;;15.90;96652.00;;;;8248691;28;20245;-65
2023/05/30 05:06:13;;;;;;;10.27;4.35;;;;;15.90;96661.00;;;;8255046;28;20203;-63
2023/05/30 05:10:16;;;;;;;9.63;4.60;;;;;16.00;96650.00;;;;8257414;28;20233;-63
2023/05/30 05:14:21;;;;;;;6.85;4.20;;;;;16.10;96650.00;;;;8251898;28;20238;-62
2023/05/30 05:18:26;;;;;;;7.53;4.50;;;;;16.30;96648.00;;;;8256832;28;20775;-63
2023/05/30 05:22:32;;;;;;;9.68;4.55;;;;;16.50;96657.00;;;;8263121;28;20632;-61
2023/05/30 05:26:35;;;;;;;13.23;4.47;;;;;16.60;96665.00;;;;8259633;28;20706;-63
2023/05/30 05:30:38;;;;;;;6.10;4.13;;;;;16.80;96659.00;;;;8254255;28;20276;-61
2023/05/30 05:34:44;;;;;;;8.02;3.95;;;;;17.00;96649.00;;;;8239380;28;20202;-62
2023/05/30 05:38:48;;;;;;;6.00;3.75;;;;;17.20;96674.00;;;;8250754;28;20214;-62
2023/05/30 05:42:51;;;;;;;8.00;3.80;;;;;17.40;96668.00;;;;8247604;28;20624;-61
2023/05/30 05:46:55;;;;;;;6.82;3.65;;;;;17.40;96676.00;;;;8249480;28;20213;-62
2023/05/30 05:51:00;;;;;;;6.35;4.25;;;;;17.50;96672.00;;;;8252258;28;20265;-61
2023/05/30 05:55:09;;;;;;;7.18;4.38;;;;;17.70;96674.00;;;;8248823;28;20203;-61
2023/05/30 05:59:15;;;;;;;8.52;3.80;;;;;17.80;96673.00;;;;8249167;28;20229;-62
2023/05/30 06:03:20;;;;;;;6.25;4.40;;;;;18.00;96671.00;;;;8252839;28;20234;-60
2023/05/30 06:07:29;;;;;;;10.25;4.47;;;;;18.10;96672.00;;;;8252069;28;20199;-62
2023/05/30 06:11:32;;;;;;;6.15;4.07;;;;;18.90;96677.00;;;;8248511;28;20242;-61
2023/05/30 06:15:36;;;;;;;9.70;4.22;;;;;19.10;96687.00;;;;8254943;28;20268;-66
2023/05/30 06:19:40;;;;;;;7.22;3.78;;;;;19.10;96685.00;;;;8253681;28;20234;-63
2023/05/30 06:23:48;;;;;;;5.97;3.67;;;;;19.30;96688.00;;;;8252291;28;20238;-61
2023/05/30 06:27:51;;;;;;;6.90;3.78;;;;;19.70;96688.00;;;;8256131;28;20194;-63
2023/05/30 06:31:54;;;;;;;12.38;4.22;;;;;20.10;96692.00;;;;8253322;28;20238;-60
2023/05/30 06:36:17;;;;;;;8.50;3.95;;;;;20.00;96703.00;;;;8253341;28;20645;-59
2023/05/30 06:40:22;;;;;;;5.57;3.58;;;;;20.20;96710.00;;;;8248006;28;20210;-62
2023/05/30 06:44:25;;;;;;;11.43;4.28;;;;;20.40;96711.00;;;;8262869;28;20199;-60
2023/05/30 06:48:28;;;;;;;10.93;3.88;;;;;20.70;96713.00;;;;8247301;28;20242;-62
2023/05/30 06:52:34;;;;;;;9.50;3.97;;;;;20.80;96711.00;;;;8256686;28;20272;-62
2023/05/30 06:56:42;;;;;;;59.63;6.85;;;;;20.60;96716.00;;;;8253869;28;20213;-61
2023/05/30 07:00:46;;;;;;;13.35;4.28;;;;;20.30;96715.00;;;;8248544;28;20199;-63
2023/05/30 07:04:50;;;;;;;10.75;4.70;;;;;20.40;96714.00;;;;8257161;28;20967;-66
2023/05/30 07:08:53;;;;;;;8.80;3.92;;;;;20.70;96717.00;;;;8248049;28;20201;-61
2023/05/30 07:12:58;;;;;;;9.13;4.03;;;;;20.80;96714.00;;;;8260457;28;20202;-69
2023/05/30 07:17:04;;;;;;;5.38;4.10;;;;;21.20;96710.00;;;;8252058;28;20813;-63
2023/05/30 07:21:10;;;;;;;11.30;4.03;;;;;21.80;96712.00;;;;8252206;28;20210;-61
2023/05/30 07:25:16;;;;;;;8.13;4.20;;;;;22.00;96707.00;;;;8249769;28;20199;-63
2023/05/30 07:29:22;;;;;;;8.63;4.20;;;;;22.20;96716.00;;;;8250225;28;20226;-62
2023/05/30 07:33:28;;;;;;;7.47;4.05;;;;;22.10;96712.00;;;;8246264;28;20265;-63
2023/05/30 07:37:38;;;;;;;13.15;3.80;;;;;22.10;96708.00;;;;8253592;28;20202;-64
2023/05/30 07:41:48;;;;;;;11.10;4.25;;;;;22.40;96700.00;;;;8261420;28;20199;-61
2023/05/30 07:45:53;;;;;;;6.88;3.85;;;;;22.80;96704.00;;;;8253822;28;20194;-62
2023/05/30 07:49:59;;;;;;;12.48;4.80;;;;;23.00;96709.00;;;;8258860;28;20588;-68
2023/05/30 07:54:02;;;;;;;6.85;4.10;;;;;23.50;96708.00;;;;8254616;28;20564;-61
2023/05/30 07:58:06;;;;;;;11.27;4.18;;;;;23.70;96703.00;;;;8249941;28;20218;-62
2023/05/30 08:02:10;;;;;;;8.85;3.97;;;;;24.10;96695.00;;;;8255808;28;20230;-64
2023/05/30 08:06:20;;;;;;;7.00;3.72;;;;;24.10;96705.00;;;;8249229;28;21126;-67
2023/05/30 08:10:23;;;;;;;8.00;3.22;;;;;24.40;96701.00;;;;8247180;28;20969;-64
2023/05/30 08:14:26;;;;;;;6.60;3.35;;;;;24.60;96701.00;;;;8255141;28;20823;-65
2023/05/30 08:18:34;;;;;;;9.02;3.40;;;;;24.40;96710.00;;;;8251212;28;20206;-65
2023/05/30 08:22:37;;;;;;;10.20;3.63;;;;;24.20;96712.00;;;;8248780;28;20203;-66
2023/05/30 08:26:43;;;;;;;8.43;3.70;;;;;24.80;96709.00;;;;8250313;28;20731;-66
2023/05/30 08:30:48;;;;;;;5.45;3.80;;;;;25.20;96720.00;;;;8251021;28;20264;-62
2023/05/30 08:34:53;;;;;;;10.57;3.95;;;;;24.80;96714.00;;;;8251201;28;20290;-61
2023/05/30 08:38:58;;;;;;;5.65;3.72;;;;;24.50;96721.00;;;;8254004;28;20261;-66
2023/05/30 08:43:20;;;;;;;8.32;4.78;;;;;24.50;96711.00;;;;8248259;28;20199;-62
2023/05/30 08:47:25;;;;;;;7.22;3.85;;;;;25.00;96712.00;;;;8250712;28;20680;-63
2023/05/30 08:51:35;;;;;;;20.83;4.60;;;;;25.20;96725.00;;;;8250775;28;20226;-63
2023/05/30 08:55:43;;;;;;;6.32;3.80;;;;;25.00;96729.00;;;;8252989;28;20555;-66
2023/05/30 08:59:49;;;;;;;6.50;3.67;;;;;25.50;96723.00;;;;8248551;28;20210;-61
2023/05/30 09:03:54;;;;;;;9.95;3.78;;;;;26.20;96728.00;;;;8246411;28;20227;-63
2023/05/30 09:08:02;;;;;;;10.77;4.03;;;;;25.80;96728.00;;;;8241494;28;20230;-64
2023/05/30 09:12:10;;;;;;;10.75;3.97;;;;;25.50;96724.00;;;;8252169;28;20718;-65
2023/05/30 09:16:14;;;;;;;4.47;3.78;;;;;25.70;96727.00;;;;8246430;28;20217;-65
2023/05/30 09:20:18;;;;;;;5.53;3.95;;;;;26.00;96726.00;;;;8248684;28;20210;-66
2023/05/30 09:24:26;;;;;;;5.53;3.65;;;;;26.10;96735.00;;;;8246473;28;20637;-66
2023/05/30 09:28:34;;;;;;;5.10;3.72;;;;;26.60;96727.00;;;;8247072;28;20203;-66
2023/05/30 09:32:41;;;;;;;5.47;4.03;;;;;27.60;96731.00;;;;8244849;28;20341;-68
2023/05/30 09:36:54;;;;;;;8.32;3.60;;;;;26.90;96735.00;;;;8248935;28;20207;-65
2023/05/30 09:41:03;;;;;;;8.32;3.92;;;;;26.70;96736.00;;;;8246602;28;20230;-66
2023/05/30 09:45:11;;;;;;;6.25;3.72;;;;;26.20;96730.00;;;;8250916;28;20230;-66
2023/05/30 09:49:14;;;;;;;6.40;4.22;;;;;26.00;96747.00;;;;8244609;28;20195;-65
2023/05/30 09:53:20;;;;;;;12.07;4.05;;;;;26.10;96735.00;;;;8262676;28;20225;-65
2023/05/30 09:57:27;;;;;;;7.28;3.75;;;;;26.90;96740.00;;;;8252135;28;20207;-64
2023/05/30 10:01:43;;;;;;;10.60;3.95;;;;;26.80;96739.00;;;;8250215;28;20269;-64
2023/05/30 10:05:46;;;;;;;6.38;4.05;;;;;26.90;96740.00;;;;8254449;28;20568;-64
2023/05/30 10:09:53;;;;;;;9.85;4.43;;;;;27.50;96745.00;;;;8252068;28;20544;-67
2023/05/30 10:13:58;;;;;;;6.88;3.75;;;;;27.80;96750.00;;;;8253023;28;20207;-64
2023/05/30 10:18:13;;;;;;;8.38;3.85;;;;;27.50;96749.00;;;;8257591;28;20947;-64
2023/05/30 10:22:24;;;;;;;8.65;3.95;;;;;27.60;96743.00;;;;8251984;28;20202;-65
2023/05/30 10:26:31;;;;;;;6.55;3.28;;;;;28.20;96754.00;;;;8247480;28;20569;-63
2023/05/30 10:30:37;;;;;;;7.05;3.78;;;;;27.90;96744.00;;;;8250485;28;20219;-63
2023/05/30 10:34:46;;;;;;;5.95;3.80;;;;;28.20;96733.00;;;;8248990;28;20202;-63
2023/05/30 10:39:13;;;;;;;6.47;3.40;;;;;28.70;96743.00;;;;8242376;28;20913;-63
2023/05/30 10:43:30;;;;;;;6.85;3.60;;;;;28.50;96742.00;;;;8247528;28;20202;-64
2023/05/30 10:47:44;;;;;;;4.85;3.95;;;;;28.20;96742.00;;;;8250673;28;20227;-64
2023/05/30 10:52:00;;;;;;;7.05;3.92;;;;;27.20;96750.00;;;;8259216;28;20222;-62
2023/05/30 10:56:18;;;;;;;8.30;4.15;;;;;26.30;96740.00;;;;8257913;28;20203;-64
2023/05/30 11:00:24;;;;;;;7.30;3.95;;;;;25.70;96740.00;;;;8251830;28;20679;-64
2023/05/30 11:04:34;;;;;;;7.25;4.30;;;;;25.50;96727.00;;;;8254862;28;20309;-64
2023/05/30 11:08:46;;;;;;;4.70;3.63;;;;;26.20;96728.00;;;;8258092;28;20198;-64
2023/05/30 11:12:49;;;;;;;10.70;4.13;;;;;27.60;96716.00;;;;8250624;28;20223;-64
2023/05/30 11:16:57;;;;;;;11.90;4.10;;;;;28.10;96718.00;;;;8251506;28;20209;-65
2023/05/30 11:21:05;;;;;;;6.82;3.65;;;;;28.40;96718.00;;;;8254873;28;20207;-65
2023/05/30 11:25:22;;;;;;;8.85;4.15;;;;;28.60;96718.00;;;;8253378;28;20202;-65
2023/05/30 11:29:44;;;;;;;5.40;3.95;;;;;29.70;96708.00;;;;8248692;28;20207;-65
2023/05/30 11:33:50;;;;;;;4.35;3.50;;;;;31.50;96705.00;;;;8256385;28;20233;-65
2023/05/30 11:37:55;;;;;;;5.28;3.78;;;;;31.10;96699.00;;;;8261254;28;20806;-68
2023/05/30 11:42:00;;;;;;;5.97;3.90;;;;;28.80;96708.00;;;;8255765;28;20202;-64
2023/05/30 11:46:03;;;;;;;8.38;4.00;;;;;28.70;96701.00;;;;8250938;28;20281;-68
2023/05/30 11:50:09;;;;;;;5.28;4.07;;;;;29.20;96700.00;;;;8253579;28;20206;-65
2023/05/30 11:54:14;;;;;;;6.13;3.83;;;;;29.90;96696.00;;;;8248684;28;20233;-63
2023/05/30 11:58:18;;;;;;;5.50;3.75;;;;;30.70;96697.00;;;;8247014;28;20326;-68
2023/05/30 12:02:27;;;;;;;5.38;4.10;;;;;31.90;96697.00;;;;8255233;28;20266;-63
2023/05/30 12:06:34;;;;;;;5.13;3.83;;;;;32.20;96705.00;;;;8250607;28;20337;-66
2023/05/30 12:10:41;;;;;;;7.10;3.65;;;;;31.70;96703.00;;;;8255447;28;20906;-63
2023/05/30 12:15:02;;;;;;;7.68;3.85;;;;;31.50;96703.00;;;;8249862;28;20252;-66
2023/05/30 12:19:11;;;;;;;6.90;3.70;;;;;32.10;96699.00;;;;8253172;28;20331;-61
2023/05/30 12:23:15;;;;;;;6.30;3.45;;;;;32.60;96693.00;;;;8252286;28;20195;-66
2023/05/30 12:27:21;;;;;;;5.38;3.65;;;;;32.70;96702.00;;;;8252089;28;20207;-67
2023/05/30 12:31:30;;;;;;;4.30;3.53;;;;;31.60;96697.00;;;;8248964;28;20222;-66
2023/05/30 12:35:33;;;;;;;6.60;3.75;;;;;29.70;96706.00;;;;8247956;28;20289;-65
2023/05/30 12:39:45;;;;;;;7.53;3.65;;;;;27.70;96695.00;;;;8251420;28;20534;-65
2023/05/30 12:43:53;;;;;;;8.38;3.50;;;;;27.00;96690.00;;;;8253089;28;20209;-58
2023/05/30 12:47:56;;;;;;;4.63;3.38;;;;;27.30;96693.00;;;;8253058;28;20202;-60
2023/05/30 12:52:02;;;;;;;5.32;3.20;;;;;27.10;96689.00;;;;8247953;28;20290;-58
2023/05/30 12:56:12;;;;;;;7.15;3.58;;;;;26.90;96681.00;;;;8249512;28;20206;-59
2023/05/30 13:00:22;;;;;;;5.30;3.97;;;;;26.90;96687.00;;;;8241769;28;20317;-59
2023/05/30 13:04:29;;;;;;;12.07;3.63;;;;;27.30;96684.00;;;;8250548;28;20235;-59
2023/05/30 13:08:35;;;;;;;5.03;3.55;;;;;27.50;96684.00;;;;8250744;28;20195;-59
2023/05/30 13:12:38;;;;;;;4.55;3.67;;;;;28.00;96676.00;;;;8251265;28;20230;-59
2023/05/30 13:16:43;;;;;;;4.38;3.30;;;;;28.40;96683.00;;;;8248725;28;20199;-58
2023/05/30 13:20:52;;;;;;;8.48;3.17;;;;;29.00;96676.00;;;;9636947;22;21450;-58
2023/05/30 13:24:59;;;;;;;7.55;3.35;;;;;28.00;96678.00;;;;8366054;28;20192;-59
2023/05/30 13:29:06;;;;;;;158.20;10.52;;;;;28.20;96668.00;;;;8368510;28;20606;-58
2023/05/30 13:33:10;;;;;;;8.13;3.70;;;;;28.90;96677.00;;;;8369513;28;20696;-58
2023/05/30 13:37:15;;;;;;;8.63;3.25;;;;;28.80;96679.00;;;;8370147;28;20224;-57
2023/05/30 13:41:18;;;;;;;8.57;3.60;;;;;28.90;96675.00;;;;8370343;28;20619;-58
2023/05/30 13:45:25;;;;;;;8.63;3.53;;;;;29.20;96661.00;;;;8370075;28;20200;-58
2023/05/30 13:49:35;;;;;;;11.52;4.10;;;;;29.60;96671.00;;;;8370034;28;20583;-58
2023/05/30 13:53:39;;;;;;;5.32;3.50;;;;;29.70;96682.00;;;;8368694;28;20264;-58
2023/05/30 13:57:47;;;;;;;7.15;3.65;;;;;29.50;96670.00;;;;8367872;28;20351;-58
2023/05/30 14:01:51;;;;;;;7.88;3.53;;;;;29.40;96664.00;;;;8367754;28;20196;-58
2023/05/30 14:05:56;;;;;;;5.45;3.25;;;;;29.70;96659.00;;;;8368274;28;20308;-58
2023/05/30 14:10:01;;;;;;;5.25;3.00;;;;;29.80;96665.00;;;;8369689;28;20193;-58
2023/05/30 14:14:09;;;;;;;3.45;3.15;;;;;29.70;96669.00;;;;8368778;28;20631;-58
2023/05/30 14:18:14;;;;;;;7.57;3.10;;;;;29.90;96676.00;;;;8368779;28;20197;-58
2023/05/30 14:22:21;;;;;;;6.72;3.60;;;;;29.90;96654.00;;;;8369599;28;20239;-58
2023/05/30 14:26:28;;;;;;;4.30;3.65;;;;;28.50;96662.00;;;;8369886;28;20560;-58
2023/05/30 14:30:32;;;;;;;5.80;3.25;;;;;27.70;96681.00;;;;8368067;28;20196;-58
2023/05/30 14:34:35;;;;;;;6.05;3.38;;;;;28.00;96677.00;;;;8365992;28;20224;-58
2023/05/30 14:38:40;;;;;;;4.68;3.50;;;;;28.40;96665.00;;;;8368194;28;20287;-58
2023/05/30 14:42:46;;;;;;;4.78;3.35;;;;;28.60;96662.00;;;;8367940;28;20541;-58
2023/05/30 14:46:51;;;;;;;6.47;3.03;;;;;29.10;96665.00;;;;8368065;28;20196;-58
2023/05/30 14:50:59;;;;;;;8.73;3.17;;;;;29.10;96667.00;;;;8368484;28;20224;-58
2023/05/30 14:55:04;;;;;;;8.75;3.70;;;;;28.70;96664.00;;;;8368029;28;20205;-58
2023/05/30 14:59:10;;;;;;;5.47;3.42;;;;;28.70;96669.00;;;;8363881;28;20573;-58
2023/05/30 15:03:13;;;;;;;10.40;3.33;;;;;28.30;96671.00;;;;8364370;28;20187;-58
2023/05/30 15:07:16;;;;;;;7.50;3.03;;;;;28.20;96660.00;;;;8364232;28;20228;-58
2023/05/30 15:11:21;;;;;;;4.53;3.20;;;;;28.50;96663.00;;;;8366366;28;20355;-59
2023/05/30 15:15:28;;;;;;;5.00;3.08;;;;;28.60;96661.00;;;;8365758;28;20311;-58
2023/05/30 15:19:31;;;;;;;5.72;3.25;;;;;28.40;96660.00;;;;8364576;28;20207;-58
2023/05/30 15:23:35;;;;;;;5.22;3.20;;;;;28.10;96658.00;;;;8367340;28;20208;-58
2023/05/30 15:27:40;;;;;;;7.43;3.75;;;;;28.20;96654.00;;;;8366119;28;20598;-58
2023/05/30 15:31:43;;;;;;;7.45;3.38;;;;;28.10;96646.00;;;;8367787;28;20648;-58
2023/05/30 15:35:48;;;;;;;5.43;3.22;;;;;28.30;96653.00;;;;8366130;28;20224;-58
2023/05/30 15:39:51;;;;;;;3.53;3.03;;;;;28.20;96659.00;;;;8366388;28;20192;-58
2023/05/30 15:44:02;;;;;;;4.45;3.10;;;;;28.10;96659.00;;;;8365390;28;20200;-58
2023/05/30 15:48:05;;;;;;;3.58;2.95;;;;;28.20;96658.00;;;;8366677;28;20235;-58
2023/05/30 15:52:10;;;;;;;5.40;2.92;;;;;28.20;96650.00;;;;8366163;28;20296;-58
2023/05/30 15:56:15;;;;;;;4.10;2.80;;;;;28.20;96644.00;;;;8366011;28;20232;-58
2023/05/30 16:00:24;;;;;;;4.20;3.15;;;;;28.10;96651.00;;;;8365353;28;20247;-58
2023/05/30 16:04:29;;;;;;;6.07;2.85;;;;;28.30;96637.00;;;;8364924;28;20219;-58
2023/05/30 16:08:36;;;;;;;8.73;3.60;;;;;28.60;96650.00;;;;8365792;28;20660;-58
2023/05/30 16:12:41;;;;;;;5.50;3.17;;;;;28.80;96646.00;;;;8362687;28;20216;-58
2023/05/30 16:17:17;;;;;;;3.80;3.10;;;;;29.00;96649.00;;;;8365767;28;20243;-58
2023/05/30 16:21:20;;;;;;;5.10;2.92;;;;;28.80;96651.00;;;;8365925;28;20228;-58
2023/05/30 16:25:27;;;;;;;4.90;3.28;;;;;28.40;96653.00;;;;8364661;28;20634;-58
2023/05/30 16:29:30;;;;;;;4.75;3.13;;;;;28.40;96650.00;;;;8363685;28;20618;-58
2023/05/30 16:33:36;;;;;;;5.03;3.22;;;;;28.50;96645.00;;;;8364386;28;20684;-58
2023/05/30 16:37:41;;;;;;;4.75;3.15;;;;;28.30;96650.00;;;;8361602;28;20228;-58
2023/05/30 16:41:52;;;;;;;5.82;3.40;;;;;28.20;96650.00;;;;8364610;28;20185;-58
2023/05/30 16:45:57;;;;;;;4.32;3.00;;;;;28.50;96654.00;;;;8364623;28;20622;-58
2023/05/30 16:50:06;;;;;;;5.05;3.00;;;;;28.40;96654.00;;;;8364347;28;20228;-58
2023/05/30 16:54:13;;;;;;;5.65;3.20;;;;;28.60;96658.00;;;;8364432;28;20231;-58
2023/05/30 16:58:17;;;;;;;7.03;3.15;;;;;28.50;96661.00;;;;8362653;28;20283;-57
2023/05/30 17:02:26;;;;;;;4.15;3.28;;;;;28.50;96662.00;;;;8358469;28;20232;-57
2023/05/30 17:06:31;;;;;;;3.85;2.92;;;;;28.90;96661.00;;;;8361152;28;20216;-57
2023/05/30 17:10:38;;;;;;;7.50;3.05;;;;;28.80;96671.00;;;;8361114;28;20284;-58
2023/05/30 17:14:41;;;;;;;4.85;2.90;;;;;28.60;96669.00;;;;8363182;28;20310;-57
2023/05/30 17:18:47;;;;;;;6.25;2.67;;;;;28.20;96669.00;;;;8363116;28;20180;-57
2023/05/30 17:22:53;;;;;;;4.68;3.03;;;;;28.00;96663.00;;;;8364544;28;20204;-58
2023/05/30 17:26:56;;;;;;;5.00;3.15;;;;;27.80;96669.00;;;;8363982;28;20214;-58
2023/05/30 17:30:59;;;;;;;12.15;2.90;;;;;27.80;96673.00;;;;8364236;28;20283;-58
2023/05/30 17:35:04;;;;;;;3.53;2.80;;;;;27.60;96678.00;;;;8363759;28;20227;-58
2023/05/30 17:39:14;;;;;;;4.60;2.72;;;;;27.40;96678.00;;;;8364555;28;20247;-57
2023/05/30 17:43:17;;;;;;;2.97;2.65;;;;;27.10;96682.00;;;;8360898;28;20239;-57
2023/05/30 17:47:22;;;;;;;7.80;3.20;;;;;26.70;96694.00;;;;8361426;28;20193;-57
2023/05/30 17:51:26;;;;;;;4.50;2.50;;;;;26.40;96687.00;;;;8363027;28;20201;-57
2023/05/30 17:55:30;;;;;;;6.90;3.30;;;;;25.40;96690.00;;;;8362645;28;20227;-57
2023/05/30 17:59:34;;;;;;;9.90;2.58;;;;;24.60;96701.00;;;;8359235;28;20287;-56
2023/05/30 18:03:37;;;;;;;4.03;2.53;;;;;23.90;96694.00;;;;8361614;28;20552;-57
2023/05/30 18:07:41;;;;;;;6.63;2.97;;;;;23.30;96707.00;;;;8362590;28;20530;-57
2023/05/30 18:11:47;;;;;;;5.05;2.40;;;;;22.90;96707.00;;;;8369817;28;20232;-57
2023/05/30 18:15:51;;;;;;;7.93;2.63;;;;;22.60;96712.00;;;;8368946;28;20311;-58
2023/05/30 18:20:04;;;;;;;3.50;2.25;;;;;22.30;96715.00;;;;8368929;28;20242;-58
2023/05/30 18:24:07;;;;;;;5.30;2.55;;;;;22.00;96714.00;;;;8369446;28;20644;-58
2023/05/30 18:28:17;;;;;;;3.97;2.53;;;;;21.80;96729.00;;;;8368814;28;20192;-57
2023/05/30 18:32:21;;;;;;;3.75;2.63;;;;;21.60;96733.00;;;;8368659;28;20200;-57
2023/05/30 18:36:24;;;;;;;5.43;2.60;;;;;21.40;96729.00;;;;8369046;28;20227;-57
2023/05/30 18:40:30;;;;;;;6.25;2.58;;;;;21.20;96735.00;;;;8368805;28;20697;-58
2023/05/30 18:44:35;;;;;;;4.88;2.60;;;;;21.00;96730.00;;;;8367743;28;20204;-58
2023/05/30 18:48:42;;;;;;;6.35;2.67;;;;;20.90;96741.00;;;;8367835;28;20224;-58
2023/05/30 18:52:49;;;;;;;3.53;2.50;;;;;20.70;96757.00;;;;8366867;28;20660;-57
2023/05/30 18:56:52;;;;;;;3.72;2.08;;;;;20.50;96748.00;;;;8368480;28;20658;-57
2023/05/30 19:01:00;;;;;;;4.78;2.47;;;;;20.30;96755.00;;;;8367474;28;20192;-57
2023/05/30 19:05:07;;;;;;;2.42;2.00;;;;;20.10;96762.00;;;;8367860;28;20217;-57
2023/05/30 19:09:13;;;;;;;3.20;2.22;;;;;19.90;96769.00;;;;8367824;28;20199;-57
2023/05/30 19:13:17;;;;;;;6.68;2.53;;;;;19.80;96767.00;;;;8367246;28;20193;-57
2023/05/30 19:17:24;;;;;;;5.45;3.22;;;;;19.60;96772.00;;;;8366918;28;20635;-57
2023/05/30 19:21:28;;;;;;;4.35;2.50;;;;;19.50;96776.00;;;;8367529;28;20547;-57
2023/05/30 19:25:31;;;;;;;5.10;2.67;;;;;19.30;96784.00;;;;8366528;28;20288;-57
2023/05/30 19:29:34;;;;;;;4.97;2.90;;;;;19.20;96789.00;;;;8366927;28;20303;-57
2023/05/30 19:33:41;;;;;;;4.93;2.53;;;;;19.00;96799.00;;;;8367047;28;20217;-57
2023/05/30 19:37:44;;;;;;;5.85;2.67;;;;;18.80;96804.00;;;;8365928;28;20250;-57
2023/05/30 19:41:50;;;;;;;4.88;2.33;;;;;18.70;96811.00;;;;8363457;28;20196;-57
2023/05/30 19:45:53;;;;;;;4.28;2.60;;;;;18.60;96814.00;;;;8366186;28;20189;-57
2023/05/30 19:49:58;;;;;;;8.38;3.30;;;;;18.50;96810.00;;;;8366711;28;20236;-57
2023/05/30 19:54:04;;;;;;;4.50;2.10;;;;;18.50;96809.00;;;;8364868;28;20600;-57
2023/05/30 19:58:08;;;;;;;3.72;2.63;;;;;18.40;96809.00;;;;8366216;28;20639;-57
2023/05/30 20:02:11;;;;;;;3.65;2.17;;;;;18.30;96812.00;;;;8365277;28;20192;-57
2023/05/30 20:06:16;;;;;;;5.90;2.67;;;;;18.20;96819.00;;;;8364870;28;20216;-57
2023/05/30 20:10:22;;;;;;;2.38;2.22;;;;;18.10;96823.00;;;;8366274;28;20197;-57
2023/05/30 20:14:25;;;;;;;5.15;2.40;;;;;17.90;96825.00;;;;8364626;28;20264;-57
2023/05/30 20:18:28;;;;;;;4.35;2.10;;;;;17.80;96834.00;;;;8362890;28;20632;-57
2023/05/30 20:22:33;;;;;;;4.38;2.72;;;;;17.80;96832.00;;;;8363961;28;20271;-57
2023/05/30 20:26:38;;;;;;;7.30;2.75;;;;;17.70;96841.00;;;;8364581;28;20231;-57
2023/05/30 20:30:41;;;;;;;3.90;2.25;;;;;17.60;96844.00;;;;8357955;28;20188;-57